Belview, Minnesota
Current Conditions -  °F | °C
As of 2:36 AM on Tuesday 27 Jan 2015 (Local Time) from KRWF Reporting Station
Overcast Overcast  
Wind Chill: 32°   Ceiling: 900
Heat Index: 32°   Visibility: 10mi
Dew Point: 28°   Wind: 3mph
Humidity: 85%   Direction: 310°NW
Pressure: 30.07"   Gusts: NA
Location:  44.61°N, 95.33°W
Report Text: KRWF 270836Z AUTO 31003KT 10SM OVC009 00/M02 A3007 RMK AO2 T00001022
Loading
Personal Weather Stations






























Interactive Weather Map New forecast layout! Learn more

10-Day Weather Forecast

Advertisements
Track Severe Weather on mobile